Time;durP1;ratioP1;P1;durP2;ratioP2;P2;SDS_P1;SDS_P2;PMS_P1;PMS_P2;Temp;Humidity;BMP_temperature;BMP_pressure;BME280_temperature;BME280_humidity;BME280_pressure;Samples;Min_cycle;Max_cycle;Signal;HPM_P1;HPM_P2
2023/08/22 00:00:40;;;;;;;4.82;2.67;;;;;;;;;;5085382;28;20492;-74
2023/08/22 00:03:10;;;;;;;6.60;2.95;;;;;;;;;;5085274;28;20044;-74
2023/08/22 00:05:40;;;;;;;7.72;2.88;;;;;;;;;;5085289;28;20059;-73
2023/08/22 00:08:11;;;;;;;6.18;2.70;;;;;;;;;;5085523;28;20055;-73
2023/08/22 00:10:42;;;;;;;7.30;3.15;;;;;;;;;;5085425;28;20079;-75
2023/08/22 00:13:14;;;;;;;4.50;2.67;;;;;;;;;;5084065;28;20056;-74
2023/08/22 00:15:46;;;;;;;9.82;3.33;;;;;;;;;;5085447;28;20063;-73
2023/08/22 00:18:16;;;;;;;5.68;2.60;;;;;;;;;;5085085;28;20374;-75
2023/08/22 00:20:47;;;;;;;3.53;2.67;;;;;;;;;;5085400;28;20051;-75
2023/08/22 00:23:18;;;;;;;7.18;3.28;;;;;;;;;;5084991;28;20063;-74
2023/08/22 00:25:51;;;;;;;10.63;2.85;;;;;;;;;;5085073;28;20055;-74
2023/08/22 00:28:21;;;;;;;6.95;3.35;;;;;;;;;;5084750;28;20048;-74
2023/08/22 00:30:55;;;;;;;5.57;2.63;;;;;;;;;;5084631;28;20072;-74
2023/08/22 00:33:27;;;;;;;7.25;3.00;;;;;;;;;;5084886;28;20051;-74
2023/08/22 00:35:59;;;;;;;5.72;2.70;;;;;;;;;;5084143;28;20059;-74
2023/08/22 00:38:29;;;;;;;5.78;3.03;;;;;;;;;;5084929;28;20050;-73
2023/08/22 00:41:01;;;;;;;4.15;3.00;;;;;;;;;;5084926;28;20118;-73
2023/08/22 00:43:32;;;;;;;5.20;3.33;;;;;;;;;;5084252;28;20036;-73
2023/08/22 00:46:03;;;;;;;5.70;3.42;;;;;;;;;;5084883;28;20056;-75
2023/08/22 00:48:33;;;;;;;3.13;2.65;;;;;;;;;;5084263;28;20044;-73
2023/08/22 00:51:04;;;;;;;6.78;3.30;;;;;;;;;;5084809;28;20047;-75
2023/08/22 00:53:36;;;;;;;4.85;2.88;;;;;;;;;;5084651;28;20043;-75
2023/08/22 00:56:07;;;;;;;6.32;3.50;;;;;;;;;;5083173;28;20513;-74
2023/08/22 00:58:39;;;;;;;5.13;2.75;;;;;;;;;;5082767;28;20744;-74
2023/08/22 01:01:10;;;;;;;7.72;3.17;;;;;;;;;;5083649;28;20051;-73
2023/08/22 01:03:43;;;;;;;5.40;3.10;;;;;;;;;;5080970;28;20060;-72
2023/08/22 01:06:28;;;;;;;4.95;2.63;;;;;;;;;;5082381;28;20044;-73
2023/08/22 01:09:05;;;;;;;4.63;3.00;;;;;;;;;;5083173;28;20046;-74
2023/08/22 01:11:42;;;;;;;4.97;3.25;;;;;;;;;;5080987;28;20422;-73
2023/08/22 01:14:20;;;;;;;7.13;2.90;;;;;;;;;;5084071;28;20075;-73
2023/08/22 01:16:51;;;;;;;7.05;2.85;;;;;;;;;;5077822;28;20044;-74
2023/08/22 01:19:21;;;;;;;7.53;3.58;;;;;;;;;;5073845;28;20047;-74
2023/08/22 01:21:54;;;;;;;7.70;2.85;;;;;;;;;;5071383;28;20059;-73
2023/08/22 01:24:25;;;;;;;5.95;2.80;;;;;;;;;;5074526;28;20506;-74
2023/08/22 01:26:57;;;;;;;5.47;3.15;;;;;;;;;;5073500;28;20536;-73
2023/08/22 01:29:53;;;;;;;7.28;3.00;;;;;;;;;;5063015;28;20036;-75
2023/08/22 01:32:37;;;;;;;5.95;2.50;;;;;;;;;;5063044;28;20045;-74
2023/08/22 01:35:12;;;;;;;3.08;2.60;;;;;;;;;;5070065;28;20419;-73
2023/08/22 01:37:52;;;;;;;5.38;2.88;;;;;;;;;;5062553;28;20044;-73
2023/08/22 01:40:24;;;;;;;8.70;2.65;;;;;;;;;;5060901;28;20051;-73
2023/08/22 01:42:56;;;;;;;8.23;3.80;;;;;;;;;;5063125;28;20036;-74
2023/08/22 01:45:26;;;;;;;6.50;2.90;;;;;;;;;;5062835;28;20053;-75
2023/08/22 01:47:57;;;;;;;5.90;2.90;;;;;;;;;;5059857;28;20063;-73
2023/08/22 01:50:27;;;;;;;3.63;2.47;;;;;;;;;;5062972;28;20067;-73
2023/08/22 01:53:00;;;;;;;8.23;3.40;;;;;;;;;;5062864;28;20057;-75
2023/08/22 01:55:31;;;;;;;5.80;3.38;;;;;;;;;;5060681;28;20059;-75
2023/08/22 01:58:03;;;;;;;6.10;2.90;;;;;;;;;;5061009;28;20053;-73
2023/08/22 02:00:34;;;;;;;4.68;2.50;;;;;;;;;;5060989;28;20060;-72
2023/08/22 02:03:05;;;;;;;6.40;2.97;;;;;;;;;;5063104;28;20040;-73
2023/08/22 02:05:36;;;;;;;8.50;3.13;;;;;;;;;;5045907;28;20537;-74
2023/08/22 02:08:07;;;;;;;5.38;3.30;;;;;;;;;;5062279;28;20051;-74
2023/08/22 02:10:37;;;;;;;7.25;3.58;;;;;;;;;;5061798;28;20846;-73
2023/08/22 02:13:07;;;;;;;7.50;3.13;;;;;;;;;;5062556;28;20059;-73
2023/08/22 02:15:37;;;;;;;8.63;3.58;;;;;;;;;;5060986;28;20060;-74
2023/08/22 02:18:10;;;;;;;5.18;3.13;;;;;;;;;;5062388;28;20407;-74
2023/08/22 02:20:42;;;;;;;6.70;3.30;;;;;;;;;;5061814;28;20048;-74
2023/08/22 02:23:13;;;;;;;9.07;3.13;;;;;;;;;;5061198;28;20057;-72
2023/08/22 02:25:43;;;;;;;5.05;3.35;;;;;;;;;;5044105;28;20636;-74
2023/08/22 02:28:14;;;;;;;4.40;2.70;;;;;;;;;;5060095;28;20056;-74
2023/08/22 02:30:45;;;;;;;7.07;3.30;;;;;;;;;;5062382;28;20048;-72
2023/08/22 02:33:16;;;;;;;5.90;2.90;;;;;;;;;;5060883;28;20063;-74
2023/08/22 02:35:46;;;;;;;9.63;3.80;;;;;;;;;;5062270;28;20060;-73
2023/08/22 02:38:19;;;;;;;11.27;3.13;;;;;;;;;;5061573;28;20057;-73
2023/08/22 02:40:50;;;;;;;4.60;2.78;;;;;;;;;;5062349;28;20056;-74
2023/08/22 02:43:22;;;;;;;7.07;2.90;;;;;;;;;;5062028;28;20052;-73
2023/08/22 02:45:52;;;;;;;7.65;2.95;;;;;;;;;;5062348;28;20848;-73
2023/08/22 02:48:23;;;;;;;8.82;3.10;;;;;;;;;;5061938;28;20054;-73
2023/08/22 02:50:56;;;;;;;8.15;3.13;;;;;;;;;;5060706;28;20365;-74
2023/08/22 02:53:27;;;;;;;8.30;3.22;;;;;;;;;;5062160;28;20059;-74
2023/08/22 02:56:00;;;;;;;4.10;2.70;;;;;;;;;;5062639;28;20048;-73
2023/08/22 02:58:31;;;;;;;4.72;2.90;;;;;;;;;;5061834;28;20049;-73
2023/08/22 03:01:04;;;;;;;4.13;2.50;;;;;;;;;;5061216;28;20048;-73
2023/08/22 03:03:35;;;;;;;3.95;2.58;;;;;;;;;;5062506;28;20049;-72
2023/08/22 03:06:05;;;;;;;6.82;3.45;;;;;;;;;;5060289;28;20048;-73
2023/08/22 03:08:39;;;;;;;10.13;3.00;;;;;;;;;;5060079;28;20061;-73
2023/08/22 03:11:10;;;;;;;8.27;3.35;;;;;;;;;;5060452;28;20527;-74
2023/08/22 03:13:41;;;;;;;5.93;2.85;;;;;;;;;;5060106;28;20528;-74
2023/08/22 03:16:12;;;;;;;5.22;3.55;;;;;;;;;;5060419;28;20044;-74
2023/08/22 03:18:47;;;;;;;5.93;3.53;;;;;;;;;;5059908;28;20048;-73
2023/08/22 03:21:20;;;;;;;6.90;3.20;;;;;;;;;;5061586;28;20505;-74
2023/08/22 03:23:50;;;;;;;8.63;3.55;;;;;;;;;;5059662;28;20048;-75
2023/08/22 03:26:20;;;;;;;5.68;3.30;;;;;;;;;;5060497;28;20503;-74
2023/08/22 03:28:51;;;;;;;5.35;3.10;;;;;;;;;;5060323;28;20053;-73
2023/08/22 03:31:25;;;;;;;3.75;2.53;;;;;;;;;;5060080;28;20052;-74
2023/08/22 03:33:56;;;;;;;4.95;2.80;;;;;;;;;;5059729;28;20515;-73
2023/08/22 03:36:33;;;;;;;8.82;3.70;;;;;;;;;;5043720;28;20056;-74
2023/08/22 03:39:07;;;;;;;5.30;3.70;;;;;;;;;;5059589;28;20625;-74
2023/08/22 03:41:38;;;;;;;5.55;3.40;;;;;;;;;;5059563;28;20055;-74
2023/08/22 03:44:09;;;;;;;4.60;3.72;;;;;;;;;;5059832;28;20044;-74
2023/08/22 03:46:39;;;;;;;3.40;2.85;;;;;;;;;;5060153;28;20055;-72
2023/08/22 03:49:19;;;;;;;8.60;3.90;;;;;;;;;;5059792;28;20522;-74
2023/08/22 03:51:50;;;;;;;6.10;3.67;;;;;;;;;;5061379;28;20536;-73
2023/08/22 03:54:23;;;;;;;4.15;2.78;;;;;;;;;;5059521;28;20423;-73
2023/08/22 03:56:53;;;;;;;5.15;3.53;;;;;;;;;;5059532;28;20049;-74
2023/08/22 03:59:23;;;;;;;7.93;3.22;;;;;;;;;;5061212;28;20045;-74
2023/08/22 04:01:53;;;;;;;7.65;2.88;;;;;;;;;;5062043;28;20498;-73
2023/08/22 04:04:25;;;;;;;12.07;3.50;;;;;;;;;;5060095;28;20063;-73
2023/08/22 04:06:57;;;;;;;9.10;3.70;;;;;;;;;;5059793;28;20056;-73
2023/08/22 04:09:27;;;;;;;6.40;3.22;;;;;;;;;;5058621;28;20063;-74
2023/08/22 04:12:00;;;;;;;4.53;3.70;;;;;;;;;;5060324;28;20055;-72
2023/08/22 04:14:31;;;;;;;5.88;3.72;;;;;;;;;;5060359;28;20060;-73
2023/08/22 04:17:02;;;;;;;7.72;4.18;;;;;;;;;;5061118;28;20071;-73
2023/08/22 04:19:33;;;;;;;6.57;3.25;;;;;;;;;;5061650;28;20051;-74
2023/08/22 04:22:03;;;;;;;6.38;4.03;;;;;;;;;;5061041;28;20059;-74
2023/08/22 04:24:35;;;;;;;6.47;3.60;;;;;;;;;;5058792;28;20063;-73
2023/08/22 04:27:06;;;;;;;4.68;2.97;;;;;;;;;;5060371;28;20379;-74
2023/08/22 04:29:37;;;;;;;5.47;3.22;;;;;;;;;;5062155;28;20049;-73
2023/08/22 04:32:07;;;;;;;7.07;4.05;;;;;;;;;;5063177;28;20059;-73
2023/08/22 04:34:37;;;;;;;9.32;3.42;;;;;;;;;;5063242;28;20056;-73
2023/08/22 04:37:09;;;;;;;7.32;3.40;;;;;;;;;;5064401;28;20045;-74
2023/08/22 04:39:40;;;;;;;5.30;3.88;;;;;;;;;;5063473;28;20052;-74
2023/08/22 04:42:27;;;;;;;10.07;3.85;;;;;;;;;;5063218;28;20056;-73
2023/08/22 04:45:04;;;;;;;8.45;3.53;;;;;;;;;;5063378;28;20418;-74
2023/08/22 04:47:35;;;;;;;5.28;3.97;;;;;;;;;;5062703;28;20048;-74
2023/08/22 04:50:08;;;;;;;5.63;4.05;;;;;;;;;;5062964;28;20052;-74
2023/08/22 04:52:38;;;;;;;8.13;4.05;;;;;;;;;;5065027;28;20055;-73
2023/08/22 04:55:09;;;;;;;6.72;3.58;;;;;;;;;;5062411;28;20052;-73
2023/08/22 04:57:41;;;;;;;7.38;4.28;;;;;;;;;;5062619;28;20060;-74
2023/08/22 05:00:13;;;;;;;6.70;3.88;;;;;;;;;;5062855;28;20055;-74
2023/08/22 05:02:44;;;;;;;9.38;4.13;;;;;;;;;;5064061;28;20049;-73
2023/08/22 05:05:15;;;;;;;6.97;4.47;;;;;;;;;;5064120;28;20052;-75
2023/08/22 05:07:46;;;;;;;9.75;3.28;;;;;;;;;;5046638;28;20515;-73
2023/08/22 05:10:17;;;;;;;6.32;4.22;;;;;;;;;;5063513;28;20056;-72
2023/08/22 05:12:46;;;;;;;7.57;4.10;;;;;;;;;;5062329;28;20053;-74
2023/08/22 05:15:17;;;;;;;6.38;3.80;;;;;;;;;;5064083;28;20052;-73
2023/08/22 05:17:49;;;;;;;6.38;4.00;;;;;;;;;;5062108;28;20147;-74
2023/08/22 05:20:21;;;;;;;6.63;4.10;;;;;;;;;;5064339;28;20045;-74
2023/08/22 05:22:51;;;;;;;5.90;3.40;;;;;;;;;;5063610;28;20053;-74
2023/08/22 05:25:21;;;;;;;6.40;4.85;;;;;;;;;;5064245;28;20476;-73
2023/08/22 05:27:51;;;;;;;7.00;3.60;;;;;;;;;;5062779;28;20052;-73
2023/08/22 05:30:22;;;;;;;5.93;3.80;;;;;;;;;;5062373;28;20068;-74
2023/08/22 05:32:53;;;;;;;6.13;4.13;;;;;;;;;;5062021;28;20049;-74
2023/08/22 05:35:23;;;;;;;8.27;3.35;;;;;;;;;;5063009;28;20051;-73
2023/08/22 05:37:53;;;;;;;6.90;3.92;;;;;;;;;;5061728;28;20503;-74
2023/08/22 05:40:26;;;;;;;6.38;4.18;;;;;;;;;;5061898;28;20048;-74
2023/08/22 05:42:57;;;;;;;7.82;4.20;;;;;;;;;;5061848;28;20059;-74
2023/08/22 05:45:28;;;;;;;9.98;4.47;;;;;;;;;;5060920;28;20061;-73
2023/08/22 05:48:00;;;;;;;5.55;3.55;;;;;;;;;;5061775;28;20072;-73
2023/08/22 05:50:30;;;;;;;6.53;4.80;;;;;;;;;;5063099;28;20055;-73
2023/08/22 05:53:00;;;;;;;10.32;4.35;;;;;;;;;;5061820;28;20855;-74
2023/08/22 05:55:31;;;;;;;8.32;4.43;;;;;;;;;;5062111;28;20059;-74
2023/08/22 05:58:05;;;;;;;6.43;3.42;;;;;;;;;;5045552;28;20067;-74
2023/08/22 06:00:36;;;;;;;8.70;3.55;;;;;;;;;;5061541;28;20056;-73
2023/08/22 06:03:09;;;;;;;7.32;3.65;;;;;;;;;;5061307;28;20055;-74
2023/08/22 06:05:40;;;;;;;8.20;3.50;;;;;;;;;;5061791;28;20052;-73
2023/08/22 06:08:10;;;;;;;9.45;3.38;;;;;;;;;;5061448;28;20059;-74
2023/08/22 06:10:44;;;;;;;7.03;4.10;;;;;;;;;;5062133;28;20055;-73
2023/08/22 06:13:16;;;;;;;5.43;3.28;;;;;;;;;;5061165;28;20063;-74
2023/08/22 06:15:49;;;;;;;5.63;4.00;;;;;;;;;;5060698;28;20055;-74
2023/08/22 06:18:22;;;;;;;6.50;4.05;;;;;;;;;;5061279;28;20075;-74
2023/08/22 06:20:57;;;;;;;6.32;3.42;;;;;;;;;;5060721;28;20071;-73
2023/08/22 06:23:28;;;;;;;7.40;3.67;;;;;;;;;;5060365;28;20075;-74
2023/08/22 06:25:58;;;;;;;7.72;3.97;;;;;;;;;;5063133;28;20048;-73
2023/08/22 06:28:30;;;;;;;7.88;3.90;;;;;;;;;;5060902;28;20052;-74
2023/08/22 06:31:02;;;;;;;4.78;3.47;;;;;;;;;;5061019;28;20055;-73
2023/08/22 06:33:37;;;;;;;8.77;3.70;;;;;;;;;;5061196;28;20052;-73
2023/08/22 06:36:08;;;;;;;8.60;3.55;;;;;;;;;;5062528;28;20059;-73
2023/08/22 06:38:38;;;;;;;5.75;3.90;;;;;;;;;;5060660;28;20048;-73
2023/08/22 06:41:08;;;;;;;4.75;3.50;;;;;;;;;;5062444;28;20143;-73
2023/08/22 06:43:38;;;;;;;8.73;4.15;;;;;;;;;;5060451;28;20056;-73
2023/08/22 06:46:08;;;;;;;7.97;3.33;;;;;;;;;;5059788;28;20053;-73
2023/08/22 06:48:40;;;;;;;7.32;3.70;;;;;;;;;;5062035;28;20530;-74
2023/08/22 06:51:10;;;;;;;7.25;4.00;;;;;;;;;;5060454;28;20606;-73
2023/08/22 06:53:40;;;;;;;6.53;3.13;;;;;;;;;;5061234;28;20057;-74
2023/08/22 06:56:11;;;;;;;10.15;4.20;;;;;;;;;;5062097;28;20517;-74
2023/08/22 06:58:41;;;;;;;7.60;4.05;;;;;;;;;;5061599;28;20086;-74
2023/08/22 07:01:13;;;;;;;8.70;3.90;;;;;;;;;;5062226;28;20037;-74
2023/08/22 07:03:43;;;;;;;5.70;4.15;;;;;;;;;;5062378;28;20045;-74
2023/08/22 07:06:13;;;;;;;6.65;3.67;;;;;;;;;;5061918;28;20048;-74
2023/08/22 07:08:44;;;;;;;11.73;3.72;;;;;;;;;;5061549;28;20048;-73
2023/08/22 07:11:19;;;;;;;7.38;4.35;;;;;;;;;;5061714;28;20067;-74
2023/08/22 07:13:50;;;;;;;9.23;3.75;;;;;;;;;;5061755;28;20052;-74
2023/08/22 07:16:21;;;;;;;11.32;3.50;;;;;;;;;;5062522;28;20076;-74
2023/08/22 07:18:50;;;;;;;9.32;3.90;;;;;;;;;;5062025;28;20053;-75
2023/08/22 07:21:22;;;;;;;6.45;4.03;;;;;;;;;;5062282;28;20053;-73
2023/08/22 07:23:52;;;;;;;5.82;3.22;;;;;;;;;;5061668;28;20047;-73
2023/08/22 07:26:23;;;;;;;5.97;3.38;;;;;;;;;;5062082;28;20040;-73
2023/08/22 07:28:54;;;;;;;5.57;3.30;;;;;;;;;;5059595;28;20080;-74
2023/08/22 07:31:25;;;;;;;6.65;3.88;;;;;;;;;;5061365;28;20053;-74
2023/08/22 07:33:55;;;;;;;5.95;4.13;;;;;;;;;;5060942;28;20052;-73
2023/08/22 07:36:25;;;;;;;10.18;4.05;;;;;;;;;;5061934;28;20395;-73
2023/08/22 07:38:58;;;;;;;5.07;3.33;;;;;;;;;;5060558;28;20079;-75
2023/08/22 07:41:30;;;;;;;6.90;3.78;;;;;;;;;;5061621;28;20052;-73
2023/08/22 07:44:00;;;;;;;9.00;3.67;;;;;;;;;;5061844;28;20041;-74
2023/08/22 07:46:32;;;;;;;7.60;3.53;;;;;;;;;;5061135;28;20713;-74
2023/08/22 07:49:02;;;;;;;6.07;4.13;;;;;;;;;;5061068;28;20044;-73
2023/08/22 07:51:34;;;;;;;7.30;3.53;;;;;;;;;;5061988;28;20055;-74
2023/08/22 07:54:05;;;;;;;6.28;3.35;;;;;;;;;;5062469;28;20475;-74
2023/08/22 07:56:35;;;;;;;11.35;4.25;;;;;;;;;;5061490;28;20522;-74
2023/08/22 07:59:05;;;;;;;10.05;3.85;;;;;;;;;;5060573;28;20051;-73
2023/08/22 08:01:36;;;;;;;11.30;3.88;;;;;;;;;;5061195;28;20049;-75
2023/08/22 08:04:08;;;;;;;7.13;3.58;;;;;;;;;;5061261;28;20048;-73
2023/08/22 08:06:39;;;;;;;5.43;3.15;;;;;;;;;;5064880;28;20063;-73
2023/08/22 08:09:11;;;;;;;5.00;3.97;;;;;;;;;;5065114;28;20044;-74
2023/08/22 08:11:53;;;;;;;8.10;3.72;;;;;;;;;;5065373;28;20091;-73
2023/08/22 08:14:24;;;;;;;9.35;4.00;;;;;;;;;;5064826;28;20435;-73
2023/08/22 08:16:55;;;;;;;5.57;3.67;;;;;;;;;;5064669;28;20048;-73
2023/08/22 08:19:25;;;;;;;5.10;3.22;;;;;;;;;;5064479;28;20044;-73
2023/08/22 08:21:56;;;;;;;6.75;3.90;;;;;;;;;;5063003;28;20056;-73
2023/08/22 08:24:28;;;;;;;6.30;3.92;;;;;;;;;;5064925;28;20048;-73
2023/08/22 08:26:58;;;;;;;6.85;3.70;;;;;;;;;;5066049;28;20048;-74
2023/08/22 08:29:29;;;;;;;8.00;4.10;;;;;;;;;;5064393;28;20067;-73
2023/08/22 08:31:59;;;;;;;8.07;3.50;;;;;;;;;;5061324;28;20083;-73
2023/08/22 08:34:29;;;;;;;7.15;3.53;;;;;;;;;;5061957;28;20052;-73
2023/08/22 08:37:01;;;;;;;6.30;3.35;;;;;;;;;;5062084;28;20055;-73
2023/08/22 08:39:31;;;;;;;5.60;3.38;;;;;;;;;;5061986;28;20621;-73
2023/08/22 08:42:12;;;;;;;8.35;3.70;;;;;;;;;;5060319;28;20052;-73
2023/08/22 08:44:44;;;;;;;6.75;3.20;;;;;;;;;;5061110;28;20056;-74
2023/08/22 08:47:15;;;;;;;8.32;4.55;;;;;;;;;;5061862;28;20519;-73
2023/08/22 08:49:46;;;;;;;9.13;3.55;;;;;;;;;;5043918;28;20053;-74
2023/08/22 08:52:17;;;;;;;6.85;3.38;;;;;;;;;;5061553;28;20048;-73
2023/08/22 08:54:49;;;;;;;7.15;3.53;;;;;;;;;;5061578;28;20045;-74
2023/08/22 08:57:21;;;;;;;7.10;3.90;;;;;;;;;;5060946;28;20049;-74
2023/08/22 08:59:53;;;;;;;7.38;3.65;;;;;;;;;;5061551;28;20053;-74
2023/08/22 09:02:23;;;;;;;6.13;3.72;;;;;;;;;;5059647;28;20048;-75
2023/08/22 09:04:54;;;;;;;7.50;4.20;;;;;;;;;;5061261;28;20051;-74
2023/08/22 09:07:26;;;;;;;7.20;3.70;;;;;;;;;;5061599;28;20052;-74
2023/08/22 09:09:58;;;;;;;5.40;3.65;;;;;;;;;;5060742;28;20048;-74
2023/08/22 09:12:33;;;;;;;8.52;3.53;;;;;;;;;;5061437;28;20049;-73
2023/08/22 09:15:11;;;;;;;5.78;3.80;;;;;;;;;;5060720;28;20047;-74
2023/08/22 09:17:43;;;;;;;6.45;3.95;;;;;;;;;;5061119;28;20048;-73
2023/08/22 09:20:15;;;;;;;6.38;4.00;;;;;;;;;;5059273;28;20060;-73
2023/08/22 09:22:44;;;;;;;9.00;3.88;;;;;;;;;;5060844;28;20059;-74
2023/08/22 09:25:18;;;;;;;6.05;3.47;;;;;;;;;;5061316;28;20059;-74
2023/08/22 09:27:50;;;;;;;4.68;3.33;;;;;;;;;;5061217;28;20045;-74
2023/08/22 09:30:26;;;;;;;8.15;3.63;;;;;;;;;;5060768;28;20057;-74
2023/08/22 09:32:59;;;;;;;8.95;3.97;;;;;;;;;;5060805;28;20044;-73
2023/08/22 09:35:32;;;;;;;5.57;3.75;;;;;;;;;;5060831;28;20044;-73
2023/08/22 09:38:07;;;;;;;9.90;3.70;;;;;;;;;;5060635;28;20403;-74
2023/08/22 09:40:50;;;;;;;6.55;4.70;;;;;;;;;;5060891;28;20392;-74
2023/08/22 09:43:21;;;;;;;10.10;4.13;;;;;;;;;;5059907;28;20068;-73
2023/08/22 09:45:52;;;;;;;5.65;3.90;;;;;;;;;;5059016;28;20415;-74
2023/08/22 09:48:24;;;;;;;9.32;3.60;;;;;;;;;;5060126;28;20705;-75
2023/08/22 09:50:58;;;;;;;7.97;3.28;;;;;;;;;;5060375;28;20044;-75
2023/08/22 09:53:30;;;;;;;6.97;3.95;;;;;;;;;;5059803;28;20667;-76
2023/08/22 09:56:02;;;;;;;8.75;4.03;;;;;;;;;;5058992;28;20435;-75
2023/08/22 09:58:35;;;;;;;5.65;3.72;;;;;;;;;;5060821;28;20044;-76
2023/08/22 10:01:06;;;;;;;7.53;3.78;;;;;;;;;;5060404;28;20510;-74
2023/08/22 10:03:37;;;;;;;7.57;4.45;;;;;;;;;;5060590;28;20044;-74
2023/08/22 10:06:14;;;;;;;10.27;4.25;;;;;;;;;;5059587;28;20052;-73
2023/08/22 10:08:45;;;;;;;9.25;4.18;;;;;;;;;;5059989;28;20037;-74
2023/08/22 10:11:18;;;;;;;9.07;4.25;;;;;;;;;;5059540;28;20040;-78
2023/08/22 10:13:51;;;;;;;8.98;4.40;;;;;;;;;;5064112;28;20055;-75
2023/08/22 10:16:22;;;;;;;7.45;4.55;;;;;;;;;;5080792;28;20052;-74
2023/08/22 10:19:02;;;;;;;9.25;4.43;;;;;;;;;;5079851;28;20044;-75
2023/08/22 10:21:41;;;;;;;10.18;4.45;;;;;;;;;;5079740;28;20048;-73
2023/08/22 10:24:28;;;;;;;8.77;4.60;;;;;;;;;;5080127;28;20059;-73
2023/08/22 10:27:04;;;;;;;9.20;3.65;;;;;;;;;;5079334;28;20052;-74
2023/08/22 10:29:41;;;;;;;5.68;4.28;;;;;;;;;;5079648;28;20055;-74
2023/08/22 10:32:12;;;;;;;12.63;4.85;;;;;;;;;;5079722;28;20059;-74
2023/08/22 10:34:42;;;;;;;7.57;4.85;;;;;;;;;;5078399;28;20055;-74
2023/08/22 10:37:18;;;;;;;9.30;4.88;;;;;;;;;;5079095;28;20043;-75
2023/08/22 10:39:49;;;;;;;12.70;4.68;;;;;;;;;;5077759;28;20048;-74
2023/08/22 10:42:24;;;;;;;10.43;4.78;;;;;;;;;;5078370;28;20503;-77
2023/08/22 10:44:58;;;;;;;6.32;4.70;;;;;;;;;;5079041;28;20040;-76
2023/08/22 10:47:31;;;;;;;11.40;4.15;;;;;;;;;;5079199;28;20048;-74
2023/08/22 10:50:09;;;;;;;8.85;4.57;;;;;;;;;;5077107;28;20043;-74
2023/08/22 10:52:49;;;;;;;7.72;4.38;;;;;;;;;;5078710;28;20044;-73
2023/08/22 10:55:20;;;;;;;7.38;4.30;;;;;;;;;;5079366;28;20044;-79
2023/08/22 10:57:55;;;;;;;9.95;4.38;;;;;;;;;;5079062;28;20415;-72
2023/08/22 11:00:25;;;;;;;8.05;4.35;;;;;;;;;;5079294;28;20515;-74
2023/08/22 11:02:59;;;;;;;5.45;4.22;;;;;;;;;;5077566;28;20408;-74
2023/08/22 11:05:30;;;;;;;8.05;4.15;;;;;;;;;;5078503;28;20411;-74
2023/08/22 11:08:00;;;;;;;7.05;4.32;;;;;;;;;;5079584;28;20052;-81
2023/08/22 11:10:34;;;;;;;9.05;4.85;;;;;;;;;;5079404;28;20052;-74
2023/08/22 11:13:08;;;;;;;8.73;4.38;;;;;;;;;;5079022;28;20396;-78
2023/08/22 11:15:41;;;;;;;6.60;3.72;;;;;;;;;;5078519;28;20048;-72
2023/08/22 11:18:11;;;;;;;8.13;4.40;;;;;;;;;;5078852;28;20036;-72
2023/08/22 11:20:43;;;;;;;6.25;4.38;;;;;;;;;;5078944;28;20855;-75
2023/08/22 11:23:13;;;;;;;10.35;4.32;;;;;;;;;;5078899;28;20416;-72
2023/08/22 11:25:43;;;;;;;11.75;5.75;;;;;;;;;;5078960;28;20044;-74
2023/08/22 11:28:14;;;;;;;12.02;5.40;;;;;;;;;;5079273;28;20055;-75
2023/08/22 11:30:50;;;;;;;8.65;4.63;;;;;;;;;;5077108;28;20514;-73
2023/08/22 11:33:21;;;;;;;7.20;4.80;;;;;;;;;;5078772;28;20495;-79
2023/08/22 11:35:52;;;;;;;7.93;4.15;;;;;;;;;;5078513;28;20054;-79
2023/08/22 11:38:23;;;;;;;6.55;4.88;;;;;;;;;;5078474;28;20479;-75
2023/08/22 11:40:55;;;;;;;7.25;4.82;;;;;;;;;;5082911;28;20052;-76
2023/08/22 11:43:25;;;;;;;11.68;5.15;;;;;;;;;;5083218;28;20114;-80
2023/08/22 11:45:56;;;;;;;11.80;4.65;;;;;;;;;;5082582;28;20051;-74
2023/08/22 11:48:26;;;;;;;11.88;5.30;;;;;;;;;;5082493;28;20044;-73
2023/08/22 11:50:56;;;;;;;8.60;5.55;;;;;;;;;;5080951;28;20048;-74
2023/08/22 11:53:32;;;;;;;6.95;4.97;;;;;;;;;;5083213;28;20518;-74
2023/08/22 11:56:02;;;;;;;9.43;6.50;;;;;;;;;;5081449;28;20047;-74
2023/08/22 11:58:42;;;;;;;12.18;7.03;;;;;;;;;;5082072;28;20044;-75
2023/08/22 12:01:12;;;;;;;11.10;6.43;;;;;;;;;;5081836;28;20047;-72
2023/08/22 12:03:47;;;;;;;10.98;5.60;;;;;;;;;;5082579;28;20059;-74
2023/08/22 12:06:18;;;;;;;11.00;5.97;;;;;;;;;;5082850;28;20047;-74
2023/08/22 12:08:55;;;;;;;8.45;4.97;;;;;;;;;;5082476;28;20051;-74
2023/08/22 12:11:28;;;;;;;13.90;5.43;;;;;;;;;;5082244;28;20505;-75
2023/08/22 12:13:58;;;;;;;10.45;4.93;;;;;;;;;;5082000;28;20044;-74
2023/08/22 12:16:28;;;;;;;10.55;5.47;;;;;;;;;;5082671;28;20495;-76
2023/08/22 12:18:58;;;;;;;8.70;5.25;;;;;;;;;;5082180;28;20055;-74
2023/08/22 12:21:31;;;;;;;7.68;5.05;;;;;;;;;;5081933;28;20055;-73
2023/08/22 12:24:02;;;;;;;19.33;6.25;;;;;;;;;;5081677;28;20067;-74
2023/08/22 12:26:33;;;;;;;6.97;5.65;;;;;;;;;;5082605;28;20056;-75
2023/08/22 12:29:03;;;;;;;9.52;5.68;;;;;;;;;;5080231;28;20056;-75
2023/08/22 12:31:34;;;;;;;6.03;5.18;;;;;;;;;;5082252;28;20054;-75
2023/08/22 12:34:11;;;;;;;11.05;5.50;;;;;;;;;;5082301;28;20483;-75
2023/08/22 12:36:41;;;;;;;16.67;5.65;;;;;;;;;;5082851;28;20052;-75
2023/08/22 12:39:12;;;;;;;8.45;5.10;;;;;;;;;;5080178;28;20130;-72
2023/08/22 12:41:43;;;;;;;8.60;5.38;;;;;;;;;;5082158;28;20048;-75
2023/08/22 12:44:14;;;;;;;14.40;5.90;;;;;;;;;;5082075;28;20059;-73
2023/08/22 12:46:45;;;;;;;13.10;6.50;;;;;;;;;;5079792;28;20070;-73
2023/08/22 12:49:15;;;;;;;11.23;8.80;;;;;;;;;;5082059;28;20043;-74
2023/08/22 12:51:46;;;;;;;7.93;5.88;;;;;;;;;;5080545;28;20051;-73
2023/08/22 12:54:18;;;;;;;16.42;6.28;;;;;;;;;;5081646;28;20051;-74
2023/08/22 12:56:48;;;;;;;8.02;5.50;;;;;;;;;;5081670;28;20836;-74
2023/08/22 12:59:19;;;;;;;12.13;8.18;;;;;;;;;;5081705;28;20044;-74
2023/08/22 13:01:49;;;;;;;11.90;5.80;;;;;;;;;;5081601;28;20059;-74
2023/08/22 13:04:26;;;;;;;7.55;5.20;;;;;;;;;;5079717;28;20048;-75
2023/08/22 13:06:57;;;;;;;8.23;5.25;;;;;;;;;;5081392;28;20043;-75
2023/08/22 13:09:28;;;;;;;6.90;5.38;;;;;;;;;;5081209;28;20063;-74
2023/08/22 13:11:59;;;;;;;7.95;5.88;;;;;;;;;;5081543;28;20509;-78
2023/08/22 13:14:30;;;;;;;7.32;5.53;;;;;;;;;;5081798;28;20047;-72
2023/08/22 13:17:03;;;;;;;6.65;5.95;;;;;;;;;;5081443;28;20040;-76
2023/08/22 13:19:34;;;;;;;8.60;5.65;;;;;;;;;;5081762;28;20066;-74
2023/08/22 13:22:04;;;;;;;6.93;5.35;;;;;;;;;;5080893;28;20082;-75
2023/08/22 13:24:35;;;;;;;8.95;6.22;;;;;;;;;;5081453;28;20060;-74
2023/08/22 13:27:06;;;;;;;9.10;6.00;;;;;;;;;;5080682;28;20495;-74
2023/08/22 13:29:36;;;;;;;6.75;5.65;;;;;;;;;;5080880;28;20052;-72
2023/08/22 13:32:07;;;;;;;7.40;6.03;;;;;;;;;;5081704;28;20554;-73
2023/08/22 13:34:38;;;;;;;8.57;5.80;;;;;;;;;;5081043;28;20066;-73
2023/08/22 13:37:09;;;;;;;9.30;5.72;;;;;;;;;;5079340;28;20052;-74
2023/08/22 13:39:40;;;;;;;15.10;6.28;;;;;;;;;;5081034;28;20054;-74
2023/08/22 13:42:10;;;;;;;11.57;5.65;;;;;;;;;;5080776;28;20051;-73
2023/08/22 13:44:41;;;;;;;8.77;6.28;;;;;;;;;;5078974;28;20040;-77
2023/08/22 13:47:12;;;;;;;9.13;6.70;;;;;;;;;;5081001;28;20530;-76
2023/08/22 13:49:44;;;;;;;10.85;6.50;;;;;;;;;;5081063;28;20566;-76
2023/08/22 13:52:14;;;;;;;15.07;7.10;;;;;;;;;;5079919;28;20510;-77
2023/08/22 13:54:44;;;;;;;9.05;5.90;;;;;;;;;;5080833;28;20043;-76
2023/08/22 13:57:17;;;;;;;8.88;7.70;;;;;;;;;;5080572;28;20067;-76
2023/08/22 13:59:47;;;;;;;6.65;5.90;;;;;;;;;;5080356;28;20411;-75
2023/08/22 14:02:18;;;;;;;8.73;6.03;;;;;;;;;;5079979;28;20495;-74
2023/08/22 14:04:48;;;;;;;10.70;6.63;;;;;;;;;;5080510;28;20051;-77
2023/08/22 14:07:19;;;;;;;7.60;6.55;;;;;;;;;;5080420;28;20052;-75
2023/08/22 14:09:50;;;;;;;7.20;5.63;;;;;;;;;;5079913;28;20388;-76
2023/08/22 14:12:20;;;;;;;6.53;5.55;;;;;;;;;;5080275;28;20680;-76
2023/08/22 14:14:50;;;;;;;11.27;6.60;;;;;;;;;;5080445;28;20040;-74
2023/08/22 14:17:21;;;;;;;9.98;6.38;;;;;;;;;;5080717;28;20048;-74
2023/08/22 14:19:51;;;;;;;10.65;7.10;;;;;;;;;;5080200;28;20434;-75
2023/08/22 14:22:24;;;;;;;13.90;6.95;;;;;;;;;;5080465;28;20056;-75
2023/08/22 14:24:55;;;;;;;11.95;6.95;;;;;;;;;;5080479;28;20609;-74
2023/08/22 14:27:25;;;;;;;13.80;8.02;;;;;;;;;;5080486;28;20048;-76
2023/08/22 14:29:55;;;;;;;10.10;7.22;;;;;;;;;;5078651;28;20055;-75
2023/08/22 14:32:26;;;;;;;10.27;6.75;;;;;;;;;;5079676;28;20048;-76
2023/08/22 14:35:00;;;;;;;12.90;7.55;;;;;;;;;;5080603;28;20044;-74
2023/08/22 14:37:30;;;;;;;18.30;7.65;;;;;;;;;;5080006;28;20059;-80
2023/08/22 14:40:00;;;;;;;13.00;7.43;;;;;;;;;;5080156;28;20040;-77
2023/08/22 14:42:31;;;;;;;9.23;7.20;;;;;;;;;;5080143;28;20396;-75
2023/08/22 14:45:03;;;;;;;11.55;7.40;;;;;;;;;;5079904;28;20051;-75
2023/08/22 14:47:33;;;;;;;13.20;7.18;;;;;;;;;;5079278;28;20044;-74
2023/08/22 14:50:04;;;;;;;12.48;7.53;;;;;;;;;;5079443;28;20052;-76
2023/08/22 14:52:35;;;;;;;10.43;8.05;;;;;;;;;;5078871;28;20044;-76
2023/08/22 14:55:06;;;;;;;9.98;7.80;;;;;;;;;;5079298;28;20521;-74
2023/08/22 14:57:37;;;;;;;11.88;7.40;;;;;;;;;;5079242;28;20044;-76
2023/08/22 15:00:09;;;;;;;24.38;16.35;;;;;;;;;;5079403;28;20044;-76
2023/08/22 15:02:41;;;;;;;12.25;7.80;;;;;;;;;;5078025;28;20036;-78
2023/08/22 15:05:13;;;;;;;14.15;8.23;;;;;;;;;;5079366;28;20059;-76
2023/08/22 15:07:43;;;;;;;9.55;7.93;;;;;;;;;;5079767;28;20044;-76